Time,TemperatureF,DewpointF,PressureIn,WindDirection,WindDirectionDegrees,WindSpeedMPH,WindSpeedGustMPH,Humidity,HourlyPrecipIn,Conditions,Clouds,dailyrainin,SoftwareType,DateUTC
2013-01-03 00:00:00,38.7,37.9,30.13,NNE,18,0.0,2.0,97,0.00,,,0.00,meteohub,2013-01-03 05:00:00,
2013-01-03 00:02:00,38.5,37.8,30.12,NE,41,0.0,2.0,97,0.00,,,0.00,meteohub,2013-01-03 05:02:00,
2013-01-03 00:03:00,38.5,37.8,30.13,North,352,0.0,2.0,97,0.00,,,0.00,meteohub,2013-01-03 05:03:00,
2013-01-03 00:08:00,38.5,37.8,30.12,North,351,0.0,2.0,97,0.00,,,0.00,meteohub,2013-01-03 05:08:00,
2013-01-03 00:13:00,38.5,37.8,30.12,NE,40,1.0,2.0,97,0.00,,,0.00,meteohub,2013-01-03 05:13:00,
2013-01-03 00:18:00,38.5,37.8,30.12,NE,43,1.0,2.0,97,0.00,,,0.00,meteohub,2013-01-03 05:18:00,
2013-01-03 00:23:00,38.3,37.6,30.12,ENE,58,0.0,2.0,97,0.00,,,0.00,meteohub,2013-01-03 05:23:00,
2013-01-03 00:28:00,38.3,37.6,30.12,ENE,68,0.0,2.0,97,0.00,,,0.00,meteohub,2013-01-03 05:28:00,
2013-01-03 00:33:00,38.1,37.4,30.12,SE,136,0.0,1.0,97,0.00,,,0.00,meteohub,2013-01-03 05:33:00,
2013-01-03 00:38:00,38.1,37.4,30.11,NE,36,0.0,1.0,97,0.00,,,0.00,meteohub,2013-01-03 05:38:00,
2013-01-03 00:43:00,38.1,37.4,30.11,NNE,25,0.0,1.0,97,0.00,,,0.00,meteohub,2013-01-03 05:43:00,
2013-01-03 00:48:00,38.1,37.6,30.11,NNE,26,0.0,2.0,98,0.00,,,0.00,meteohub,2013-01-03 05:48:00,
2013-01-03 00:53:00,38.1,37.6,30.11,NNE,32,1.0,2.0,98,0.00,,,0.00,meteohub,2013-01-03 05:53:00,
2013-01-03 00:58:00,38.1,37.6,30.12,NNE,31,0.0,2.0,98,0.00,,,0.00,meteohub,2013-01-03 05:58:00,
2013-01-03 01:03:00,38.1,37.6,30.12,NNE,26,0.0,2.0,98,0.00,,,0.00,meteohub,2013-01-03 06:03:00,
2013-01-03 01:08:00,38.1,37.6,30.12,NNE,25,0.0,2.0,98,0.00,,,0.00,meteohub,2013-01-03 06:08:00,
2013-01-03 01:13:00,37.9,37.4,30.13,NNE,26,0.0,1.0,98,0.00,,,0.00,meteohub,2013-01-03 06:13:00,
2013-01-03 01:18:00,38.1,37.6,30.13,NNE,25,1.0,1.0,98,0.00,,,0.00,meteohub,2013-01-03 06:18:00,
2013-01-03 01:24:00,38.1,37.6,30.13,NNE,26,0.0,1.0,98,0.00,,,0.00,meteohub,2013-01-03 06:24:00,
2013-01-03 01:29:00,37.9,37.4,30.13,NE,44,1.0,1.0,98,0.00,,,0.00,meteohub,2013-01-03 06:29:00,
2013-01-03 01:34:00,37.8,37.0,30.13,ENE,66,1.0,2.0,97,0.00,,,0.00,meteohub,2013-01-03 06:34:00,
2013-01-03 01:39:00,37.6,36.9,30.13,NNE,21,1.0,2.0,97,0.00,,,0.00,meteohub,2013-01-03 06:39:00,
2013-01-03 01:44:00,37.6,37.0,30.14,North,359,0.0,2.0,98,0.00,,,0.00,meteohub,2013-01-03 06:44:00,
2013-01-03 01:49:00,37.6,37.0,30.14,NE,40,1.0,1.0,98,0.00,,,0.00,meteohub,2013-01-03 06:49:00,
2013-01-03 01:54:00,37.6,37.0,30.14,NE,44,0.0,3.0,98,0.00,,,0.00,meteohub,2013-01-03 06:54:00,
2013-01-03 01:59:00,37.6,37.0,30.13,NE,44,0.0,3.0,98,0.00,,,0.00,meteohub,2013-01-03 06:59:00,
2013-01-03 02:04:00,37.8,37.2,30.13,NE,44,0.0,3.0,98,0.00,,,0.00,meteohub,2013-01-03 07:04:00,
2013-01-03 02:09:00,37.8,37.2,30.14,NE,44,0.0,0.0,98,0.00,,,0.00,meteohub,2013-01-03 07:09:00,
2013-01-03 02:14:00,37.8,37.2,30.14,NE,44,0.0,0.0,98,0.00,,,0.00,meteohub,2013-01-03 07:14:00,
2013-01-03 02:19:00,37.8,37.2,30.13,NE,44,0.0,0.0,98,0.00,,,0.00,meteohub,2013-01-03 07:19:00,
2013-01-03 02:24:00,37.9,37.4,30.13,ESE,105,0.0,1.0,98,0.00,,,0.00,meteohub,2013-01-03 07:24:00,
2013-01-03 02:29:00,37.9,37.4,30.14,NNE,15,0.0,2.0,98,0.00,,,0.00,meteohub,2013-01-03 07:29:00,
2013-01-03 02:34:00,37.9,37.4,30.14,NE,44,0.0,2.0,98,0.00,,,0.00,meteohub,2013-01-03 07:34:00,
2013-01-03 02:39:00,37.9,37.4,30.14,NE,46,0.0,3.0,98,0.00,,,0.00,meteohub,2013-01-03 07:39:00,
2013-01-03 02:44:00,37.9,37.4,30.14,East,87,0.0,3.0,98,0.00,,,0.00,meteohub,2013-01-03 07:44:00,
2013-01-03 02:49:00,37.9,37.4,30.14,East,86,0.0,3.0,98,0.00,,,0.00,meteohub,2013-01-03 07:49:00,
2013-01-03 02:54:00,37.9,37.4,30.14,East,86,0.0,1.0,98,0.00,,,0.00,meteohub,2013-01-03 07:54:00,
2013-01-03 02:59:00,37.9,37.4,30.14,East,86,0.0,1.0,98,0.00,,,0.00,meteohub,2013-01-03 07:59:00,
2013-01-03 03:04:00,37.9,37.4,30.13,East,86,0.0,0.0,98,0.00,,,0.00,meteohub,2013-01-03 08:04:00,
2013-01-03 03:09:00,37.9,37.4,30.13,North,5,0.0,0.0,98,0.00,,,0.00,meteohub,2013-01-03 08:09:00,
2013-01-03 03:14:00,37.9,37.4,30.13,NNE,12,0.0,1.0,98,0.00,,,0.00,meteohub,2013-01-03 08:14:00,
2013-01-03 03:19:00,38.1,37.6,30.12,SW,215,0.0,1.0,98,0.00,,,0.00,meteohub,2013-01-03 08:19:00,
2013-01-03 03:24:00,38.1,37.6,30.12,NNE,22,4.0,4.0,98,0.00,,,0.00,meteohub,2013-01-03 08:24:00,
2013-01-03 03:29:00,38.1,37.6,30.12,WSW,237,0.0,2.0,98,0.00,,,0.00,meteohub,2013-01-03 08:29:00,
2013-01-03 03:34:00,38.1,37.6,30.12,North,350,1.0,4.0,98,0.00,,,0.00,meteohub,2013-01-03 08:34:00,
2013-01-03 03:39:00,38.1,37.6,30.12,SSE,148,0.0,4.0,98,0.00,,,0.00,meteohub,2013-01-03 08:39:00,
2013-01-03 03:44:00,38.1,37.6,30.13,ESE,104,0.0,3.0,98,0.00,,,0.00,meteohub,2013-01-03 08:44:00,
2013-01-03 03:49:00,38.1,37.6,30.12,SSE,153,0.0,3.0,98,0.00,,,0.00,meteohub,2013-01-03 08:49:00,
2013-01-03 03:54:00,38.1,37.6,30.13,SSE,154,0.0,1.0,98,0.00,,,0.00,meteohub,2013-01-03 08:54:00,
2013-01-03 03:59:00,37.9,37.4,30.13,NW,307,0.0,0.0,98,0.00,,,0.00,meteohub,2013-01-03 08:59:00,
2013-01-03 04:04:00,37.9,37.4,30.12,WSW,255,0.0,1.0,98,0.00,,,0.00,meteohub,2013-01-03 09:04:00,
2013-01-03 04:09:00,37.9,37.4,30.12,WNW,288,0.0,1.0,98,0.00,,,0.00,meteohub,2013-01-03 09:09:00,
2013-01-03 04:14:00,37.9,37.4,30.12,WNW,287,0.0,1.0,98,0.00,,,0.00,meteohub,2013-01-03 09:14:00,
2013-01-03 04:20:00,37.8,37.2,30.12,SW,217,0.0,1.0,98,0.00,,,0.00,meteohub,2013-01-03 09:20:00,
2013-01-03 04:25:00,37.8,37.2,30.13,NNE,25,0.0,1.0,98,0.00,,,0.00,meteohub,2013-01-03 09:25:00,
2013-01-03 04:30:00,37.8,37.2,30.13,NNE,25,0.0,1.0,98,0.00,,,0.00,meteohub,2013-01-03 09:30:00,
2013-01-03 04:35:00,37.6,37.0,30.14,WNW,287,0.0,1.0,98,0.00,,,0.00,meteohub,2013-01-03 09:35:00,
2013-01-03 04:39:00,37.8,37.2,30.14,WNW,286,0.0,0.0,98,0.00,,,0.00,meteohub,2013-01-03 09:39:00,
2013-01-03 04:45:00,37.6,37.0,30.13,South,176,1.0,0.0,98,0.00,,,0.00,meteohub,2013-01-03 09:45:00,
2013-01-03 04:50:00,37.6,37.0,30.13,South,186,0.0,1.0,98,0.00,,,0.00,meteohub,2013-01-03 09:50:00,
2013-01-03 04:55:00,37.6,37.0,30.13,South,179,0.0,2.0,98,0.00,,,0.00,meteohub,2013-01-03 09:55:00,
2013-01-03 05:00:00,37.6,37.0,30.13,South,179,0.0,2.0,98,0.00,,,0.00,meteohub,2013-01-03 10:00:00,
2013-01-03 05:05:00,37.6,37.0,30.12,South,177,1.0,0.0,98,0.00,,,0.00,meteohub,2013-01-03 10:05:00,
2013-01-03 05:10:00,37.6,37.0,30.13,SW,217,0.0,1.0,98,0.00,,,0.00,meteohub,2013-01-03 10:10:00,
2013-01-03 05:15:00,37.6,37.0,30.13,WNW,293,0.0,1.0,98,0.00,,,0.00,meteohub,2013-01-03 10:15:00,
2013-01-03 05:20:00,37.6,37.0,30.14,ENE,66,0.0,1.0,98,0.00,,,0.00,meteohub,2013-01-03 10:20:00,
2013-01-03 05:25:00,37.4,36.9,30.14,ENE,67,0.0,1.0,98,0.00,,,0.00,meteohub,2013-01-03 10:25:00,
2013-01-03 05:30:00,37.4,36.9,30.14,ENE,66,0.0,1.0,98,0.00,,,0.00,meteohub,2013-01-03 10:30:00,
2013-01-03 05:35:00,37.4,36.9,30.14,ENE,66,0.0,0.0,98,0.00,,,0.00,meteohub,2013-01-03 10:35:00,
2013-01-03 05:40:00,37.6,37.0,30.13,SW,215,0.0,1.0,98,0.00,,,0.00,meteohub,2013-01-03 10:40:00,
2013-01-03 05:45:00,37.6,37.0,30.13,SSW,198,0.0,1.0,98,0.00,,,0.00,meteohub,2013-01-03 10:45:00,
2013-01-03 05:50:00,37.6,37.0,30.14,SSW,201,0.0,1.0,98,0.00,,,0.00,meteohub,2013-01-03 10:50:00,
2013-01-03 05:55:00,37.6,37.0,30.14,SSW,201,0.0,0.0,98,0.00,,,0.00,meteohub,2013-01-03 10:55:00,
2013-01-03 06:00:00,37.6,37.0,30.14,SSW,201,0.0,0.0,98,0.00,,,0.00,meteohub,2013-01-03 11:00:00,
2013-01-03 06:05:00,37.6,37.0,30.14,South,186,0.0,0.0,98,0.00,,,0.00,meteohub,2013-01-03 11:05:00,
2013-01-03 06:10:00,37.6,37.0,30.13,SSE,156,1.0,1.0,98,0.00,,,0.00,meteohub,2013-01-03 11:10:00,
2013-01-03 06:15:00,37.6,37.0,30.14,SSE,165,0.0,2.0,98,0.00,,,0.00,meteohub,2013-01-03 11:15:00,
2013-01-03 06:20:00,37.6,37.0,30.14,SW,218,0.0,2.0,98,0.00,,,0.00,meteohub,2013-01-03 11:20:00,
2013-01-03 06:25:00,37.6,37.0,30.14,SE,137,0.0,2.0,98,0.00,,,0.00,meteohub,2013-01-03 11:25:00,
2013-01-03 06:30:00,37.6,37.0,30.14,WSW,240,0.0,1.0,98,0.00,,,0.00,meteohub,2013-01-03 11:30:00,
2013-01-03 06:35:00,37.6,37.0,30.14,SSW,210,0.0,1.0,98,0.00,,,0.00,meteohub,2013-01-03 11:35:00,
2013-01-03 06:40:00,37.6,37.0,30.15,SSW,211,0.0,1.0,98,0.00,,,0.00,meteohub,2013-01-03 11:40:00,
2013-01-03 06:45:00,37.6,37.0,30.15,SW,228,0.0,2.0,98,0.00,,,0.00,meteohub,2013-01-03 11:45:00,
2013-01-03 06:50:00,37.6,37.0,30.15,SSW,210,2.0,2.0,98,0.00,,,0.00,meteohub,2013-01-03 11:50:00,
2013-01-03 06:55:00,37.6,37.0,30.15,SSW,205,2.0,2.0,98,0.00,,,0.00,meteohub,2013-01-03 11:55:00,
2013-01-03 07:00:00,37.6,37.0,30.15,West,273,0.0,4.0,98,0.00,,,0.00,meteohub,2013-01-03 12:00:00,
2013-01-03 07:05:00,37.6,37.0,30.16,West,264,0.0,4.0,98,0.00,,,0.00,meteohub,2013-01-03 12:05:00,
2013-01-03 07:10:00,37.6,37.0,30.16,West,264,0.0,4.0,98,0.00,,,0.00,meteohub,2013-01-03 12:10:00,
2013-01-03 07:15:00,37.6,37.0,30.15,West,277,0.0,3.0,98,0.00,,,0.00,meteohub,2013-01-03 12:15:00,
2013-01-03 07:20:00,37.6,37.0,30.16,West,277,0.0,3.0,98,0.00,,,0.00,meteohub,2013-01-03 12:20:00,
2013-01-03 07:25:00,37.6,37.0,30.16,West,277,0.0,3.0,98,0.00,,,0.00,meteohub,2013-01-03 12:25:00,
2013-01-03 07:31:00,37.6,37.0,30.16,SSW,198,0.0,0.0,98,0.00,,,0.00,meteohub,2013-01-03 12:31:00,
2013-01-03 07:36:00,37.4,36.9,30.16,SSW,198,0.0,2.0,98,0.00,,,0.00,meteohub,2013-01-03 12:36:00,
2013-01-03 07:41:00,37.4,36.9,30.16,SSW,198,0.0,2.0,98,0.00,,,0.00,meteohub,2013-01-03 12:41:00,
2013-01-03 07:46:00,37.4,36.9,30.16,SSW,198,0.0,0.0,98,0.00,,,0.00,meteohub,2013-01-03 12:46:00,
2013-01-03 07:51:00,37.6,37.0,30.17,SSW,199,0.0,0.0,98,0.00,,,0.00,meteohub,2013-01-03 12:51:00,
2013-01-03 07:56:00,37.6,37.0,30.17,SSW,198,0.0,0.0,98,0.00,,,0.00,meteohub,2013-01-03 12:56:00,
2013-01-03 08:01:00,37.6,37.0,30.17,SSW,201,0.0,0.0,98,0.00,,,0.00,meteohub,2013-01-03 13:01:00,
2013-01-03 08:06:00,37.4,36.9,30.17,SSW,200,0.0,1.0,98,0.00,,,0.00,meteohub,2013-01-03 13:06:00,
2013-01-03 08:11:00,37.6,37.0,30.17,SSW,200,0.0,1.0,98,0.00,,,0.00,meteohub,2013-01-03 13:11:00,
2013-01-03 08:16:00,37.6,37.0,30.17,SSW,200,0.0,1.0,98,0.00,,,0.00,meteohub,2013-01-03 13:16:00,
2013-01-03 08:21:00,37.6,37.0,30.17,SSE,149,0.0,1.0,98,0.00,,,0.00,meteohub,2013-01-03 13:21:00,
2013-01-03 08:26:00,37.6,37.0,30.17,South,184,0.0,1.0,98,0.00,,,0.00,meteohub,2013-01-03 13:26:00,
2013-01-03 08:31:00,37.8,37.2,30.17,South,184,0.0,1.0,98,0.00,,,0.00,meteohub,2013-01-03 13:31:00,
2013-01-03 08:36:00,37.8,37.2,30.18,South,184,0.0,1.0,98,0.00,,,0.00,meteohub,2013-01-03 13:36:00,
2013-01-03 08:41:00,37.9,37.4,30.17,South,184,0.0,0.0,98,0.00,,,0.00,meteohub,2013-01-03 13:41:00,
2013-01-03 08:46:00,37.9,37.4,30.17,SSW,205,0.0,1.0,98,0.00,,,0.00,meteohub,2013-01-03 13:46:00,
2013-01-03 08:51:00,37.9,37.4,30.16,East,95,0.0,1.0,98,0.00,,,0.00,meteohub,2013-01-03 13:51:00,
2013-01-03 08:56:00,37.9,37.4,30.17,East,94,0.0,2.0,98,0.00,,,0.00,meteohub,2013-01-03 13:56:00,
2013-01-03 09:01:00,37.9,37.4,30.17,East,94,0.0,2.0,98,0.00,,,0.00,meteohub,2013-01-03 14:01:00,
2013-01-03 09:06:00,37.9,37.4,30.17,WSW,238,0.0,1.0,98,0.00,,,0.00,meteohub,2013-01-03 14:06:00,
2013-01-03 09:11:00,37.9,37.4,30.18,West,266,0.0,1.0,98,0.00,,,0.00,meteohub,2013-01-03 14:11:00,
2013-01-03 09:17:00,37.9,37.4,30.18,NW,305,0.0,1.0,98,0.00,,,0.00,meteohub,2013-01-03 14:17:00,
2013-01-03 09:22:00,37.9,37.4,30.18,NW,307,0.0,1.0,98,0.00,,,0.00,meteohub,2013-01-03 14:22:00,
2013-01-03 09:27:00,38.1,37.6,30.18,NNE,19,3.0,3.0,98,0.00,,,0.00,meteohub,2013-01-03 14:27:00,
2013-01-03 09:32:00,37.9,37.4,30.18,North,11,1.0,4.0,98,0.00,,,0.00,meteohub,2013-01-03 14:32:00,
2013-01-03 09:37:00,37.9,37.4,30.18,NNE,29,1.0,4.0,98,0.00,,,0.00,meteohub,2013-01-03 14:37:00,
2013-01-03 09:42:00,38.1,37.6,30.19,NNE,20,2.0,4.0,98,0.00,,,0.00,meteohub,2013-01-03 14:42:00,
2013-01-03 09:47:00,38.1,37.6,30.19,NNE,20,1.0,2.0,98,0.00,,,0.00,meteohub,2013-01-03 14:47:00,
2013-01-03 09:52:00,38.1,37.6,30.19,North,5,2.0,3.0,98,0.00,,,0.00,meteohub,2013-01-03 14:52:00,
2013-01-03 09:57:00,37.9,37.4,30.19,NNW,345,0.0,4.0,98,0.00,,,0.00,meteohub,2013-01-03 14:57:00,
2013-01-03 10:02:00,37.9,37.4,30.19,North,6,1.0,4.0,98,0.00,,,0.00,meteohub,2013-01-03 15:02:00,
2013-01-03 10:07:00,37.8,37.2,30.19,NNW,332,1.0,4.0,98,0.00,,,0.00,meteohub,2013-01-03 15:07:00,
2013-01-03 10:12:00,37.4,36.9,30.19,North,5,2.0,6.0,98,0.00,,,0.00,meteohub,2013-01-03 15:12:00,
2013-01-03 10:17:00,37.0,36.3,30.19,NNE,23,4.0,6.0,97,0.00,,,0.00,meteohub,2013-01-03 15:17:00,
2013-01-03 10:22:00,36.9,36.1,30.19,North,7,1.0,6.0,97,0.00,,,0.00,meteohub,2013-01-03 15:22:00,
2013-01-03 10:27:00,36.7,36.0,30.19,ENE,78,1.0,6.0,97,0.00,,,0.00,meteohub,2013-01-03 15:27:00,
2013-01-03 10:32:00,36.7,36.1,30.19,East,97,0.0,5.0,98,0.00,,,0.00,meteohub,2013-01-03 15:32:00,
2013-01-03 10:37:00,36.7,36.1,30.19,NNE,18,0.0,2.0,98,0.00,,,0.00,meteohub,2013-01-03 15:37:00,
2013-01-03 10:42:00,36.7,36.1,30.20,NE,45,4.0,4.0,98,0.00,,,0.00,meteohub,2013-01-03 15:42:00,
2013-01-03 10:47:00,36.3,35.8,30.20,East,100,3.0,5.0,98,0.00,,,0.00,meteohub,2013-01-03 15:47:00,
2013-01-03 10:52:00,36.1,35.6,30.20,NE,44,0.0,5.0,98,0.00,,,0.00,meteohub,2013-01-03 15:52:00,
2013-01-03 10:58:00,36.1,35.6,30.20,NNE,21,0.0,5.0,98,0.00,,,0.00,meteohub,2013-01-03 15:58:00,
2013-01-03 11:03:00,36.1,35.6,30.20,ENE,73,1.0,4.0,98,0.00,,,0.00,meteohub,2013-01-03 16:03:00,
2013-01-03 11:08:00,36.1,35.6,30.20,NNE,23,0.0,3.0,98,0.00,,,0.00,meteohub,2013-01-03 16:08:00,
2013-01-03 11:13:00,36.1,35.6,30.21,ENE,60,0.0,3.0,98,0.00,,,0.00,meteohub,2013-01-03 16:13:00,
2013-01-03 11:18:00,36.3,35.8,30.20,NE,46,3.0,3.0,98,0.00,,,0.00,meteohub,2013-01-03 16:18:00,
2013-01-03 11:23:00,36.1,35.6,30.20,NE,55,2.0,4.0,98,0.00,,,0.00,meteohub,2013-01-03 16:23:00,
2013-01-03 11:28:00,36.0,35.4,30.19,East,91,4.0,4.0,98,0.00,,,0.00,meteohub,2013-01-03 16:28:00,
2013-01-03 11:33:00,36.0,35.4,30.19,NNE,23,0.0,5.0,98,0.00,,,0.00,meteohub,2013-01-03 16:33:00,
2013-01-03 11:38:00,36.1,35.6,30.19,ENE,75,4.0,5.0,98,0.00,,,0.00,meteohub,2013-01-03 16:38:00,
2013-01-03 11:43:00,36.0,35.4,30.19,ENE,61,1.0,5.0,98,0.00,,,0.00,meteohub,2013-01-03 16:43:00,
2013-01-03 11:48:00,35.8,35.2,30.19,ENE,70,1.0,5.0,98,0.00,,,0.00,meteohub,2013-01-03 16:48:00,
2013-01-03 11:53:00,36.0,35.4,30.19,NE,36,1.0,5.0,98,0.00,,,0.00,meteohub,2013-01-03 16:53:00,
2013-01-03 11:58:00,36.1,35.6,30.19,NW,313,1.0,4.0,98,0.00,,,0.00,meteohub,2013-01-03 16:58:00,
2013-01-03 12:03:00,36.3,35.8,30.19,NNW,327,0.0,3.0,98,0.00,,,0.00,meteohub,2013-01-03 17:03:00,
2013-01-03 12:08:00,36.3,35.8,30.19,NNE,31,4.0,4.0,98,0.00,,,0.00,meteohub,2013-01-03 17:08:00,
2013-01-03 12:13:00,36.3,35.8,30.18,NNE,15,0.0,5.0,98,0.00,,,0.00,meteohub,2013-01-03 17:13:00,
2013-01-03 12:18:00,36.3,35.8,30.18,NE,55,1.0,5.0,98,0.00,,,0.00,meteohub,2013-01-03 17:18:00,
2013-01-03 12:23:00,36.3,35.8,30.18,NNE,33,0.0,5.0,98,0.00,,,0.00,meteohub,2013-01-03 17:23:00,
2013-01-03 12:28:00,36.1,35.4,30.18,ENE,72,2.0,4.0,97,0.00,,,0.00,meteohub,2013-01-03 17:28:00,
2013-01-03 12:33:00,36.0,35.2,30.18,SSW,212,1.0,5.0,97,0.00,,,0.00,meteohub,2013-01-03 17:33:00,
2013-01-03 12:38:00,36.1,35.6,30.18,NE,38,0.0,5.0,98,0.00,,,0.00,meteohub,2013-01-03 17:38:00,
2013-01-03 12:43:00,36.1,35.6,30.18,NNE,25,1.0,5.0,98,0.00,,,0.00,meteohub,2013-01-03 17:43:00,
2013-01-03 12:48:00,36.0,35.2,30.17,ENE,71,2.0,3.0,97,0.00,,,0.00,meteohub,2013-01-03 17:48:00,
2013-01-03 12:53:00,36.0,35.2,30.17,ENE,68,3.0,5.0,97,0.00,,,0.00,meteohub,2013-01-03 17:53:00,
2013-01-03 12:58:00,36.0,35.2,30.17,East,99,1.0,5.0,97,0.00,,,0.00,meteohub,2013-01-03 17:58:00,
2013-01-03 13:03:00,36.1,35.4,30.17,East,89,0.0,5.0,97,0.00,,,0.00,meteohub,2013-01-03 18:03:00,
2013-01-03 13:08:00,36.3,35.6,30.17,ENE,77,4.0,4.0,97,0.00,,,0.00,meteohub,2013-01-03 18:08:00,
2013-01-03 13:13:00,36.3,35.6,30.17,ENE,77,2.0,4.0,97,0.00,,,0.00,meteohub,2013-01-03 18:13:00,
2013-01-03 13:18:00,36.3,35.2,30.17,ENE,72,3.0,4.0,96,0.00,,,0.00,meteohub,2013-01-03 18:18:00,
2013-01-03 13:23:00,36.5,35.4,30.17,NE,54,2.0,5.0,96,0.00,,,0.00,meteohub,2013-01-03 18:23:00,
2013-01-03 13:28:00,36.5,35.4,30.16,East,91,3.0,5.0,96,0.00,,,0.00,meteohub,2013-01-03 18:28:00,
2013-01-03 13:33:00,36.7,35.6,30.16,East,80,1.0,5.0,96,0.00,,,0.00,meteohub,2013-01-03 18:33:00,
2013-01-03 13:38:00,36.9,35.8,30.16,ENE,65,2.0,4.0,96,0.00,,,0.00,meteohub,2013-01-03 18:38:00,
2013-01-03 13:43:00,37.0,35.8,30.16,NE,49,2.0,4.0,95,0.00,,,0.00,meteohub,2013-01-03 18:43:00,
2013-01-03 13:48:00,37.2,36.0,30.16,NE,49,0.0,4.0,95,0.00,,,0.00,meteohub,2013-01-03 18:48:00,
2013-01-03 13:53:00,37.4,36.1,30.16,NE,40,0.0,5.0,95,0.00,,,0.00,meteohub,2013-01-03 18:53:00,
2013-01-03 13:58:00,37.6,36.0,30.16,SSE,151,0.0,5.0,94,0.00,,,0.00,meteohub,2013-01-03 18:58:00,
2013-01-03 14:03:00,37.6,36.0,30.17,East,101,0.0,5.0,94,0.00,,,0.00,meteohub,2013-01-03 19:03:00,
2013-01-03 14:08:00,37.8,36.1,30.17,NE,39,0.0,4.0,94,0.00,,,0.00,meteohub,2013-01-03 19:08:00,
2013-01-03 14:13:00,37.9,36.3,30.17,NNE,29,1.0,4.0,94,0.00,,,0.00,meteohub,2013-01-03 19:13:00,
2013-01-03 14:18:00,37.9,36.1,30.17,ENE,68,0.0,3.0,93,0.00,,,0.00,meteohub,2013-01-03 19:18:00,
2013-01-03 14:56:00,38.3,35.6,30.17,ENE,73,1.0,7.0,90,0.00,,,0.00,meteohub,2013-01-03 19:56:00,
2013-01-03 15:01:00,38.1,35.4,30.17,ENE,75,2.0,7.0,90,0.00,,,0.00,meteohub,2013-01-03 20:01:00,
2013-01-03 15:06:00,37.9,35.2,30.17,ENE,64,3.0,6.0,90,0.00,,,0.00,meteohub,2013-01-03 20:06:00,
2013-01-03 15:11:00,37.6,34.9,30.17,NE,54,3.0,7.0,90,0.00,,,0.00,meteohub,2013-01-03 20:11:00,
2013-01-03 15:16:00,37.4,34.7,30.17,ENE,70,4.0,7.0,90,0.00,,,0.00,meteohub,2013-01-03 20:16:00,
2013-01-03 15:21:00,37.2,34.5,30.18,NNE,30,5.0,6.0,90,0.00,,,0.00,meteohub,2013-01-03 20:21:00,
2013-01-03 15:26:00,37.2,34.5,30.19,NNE,25,2.0,6.0,90,0.00,,,0.00,meteohub,2013-01-03 20:26:00,
2013-01-03 15:31:00,37.2,34.5,30.19,ENE,73,2.0,6.0,90,0.00,,,0.00,meteohub,2013-01-03 20:31:00,
2013-01-03 15:36:00,37.2,34.5,30.19,NE,49,1.0,6.0,90,0.00,,,0.00,meteohub,2013-01-03 20:36:00,
2013-01-03 15:41:00,37.2,34.3,30.20,East,79,3.0,8.0,89,0.00,,,0.00,meteohub,2013-01-03 20:41:00,
2013-01-03 15:46:00,37.2,34.5,30.20,NE,53,0.0,8.0,90,0.00,,,0.00,meteohub,2013-01-03 20:46:00,
2013-01-03 15:51:00,37.2,34.5,30.20,ENE,60,0.0,8.0,90,0.00,,,0.00,meteohub,2013-01-03 20:51:00,
2013-01-03 15:56:00,37.2,34.5,30.19,ESE,108,2.0,6.0,90,0.00,,,0.00,meteohub,2013-01-03 20:56:00,
2013-01-03 16:01:00,37.2,34.5,30.20,NNE,19,5.0,5.0,90,0.00,,,0.00,meteohub,2013-01-03 21:01:00,
2013-01-03 16:07:00,37.2,34.3,30.20,NNE,25,2.0,6.0,89,0.00,,,0.00,meteohub,2013-01-03 21:07:00,
2013-01-03 16:12:00,37.2,34.3,30.21,NE,44,4.0,6.0,89,0.00,,,0.00,meteohub,2013-01-03 21:12:00,
2013-01-03 16:17:00,37.2,34.0,30.21,ENE,58,3.0,6.0,88,0.00,,,0.00,meteohub,2013-01-03 21:17:00,
2013-01-03 16:22:00,37.0,34.2,30.21,NE,53,0.0,6.0,89,0.00,,,0.00,meteohub,2013-01-03 21:22:00,
2013-01-03 16:27:00,37.0,33.8,30.22,NE,36,1.0,5.0,88,0.00,,,0.00,meteohub,2013-01-03 21:27:00,
2013-01-03 16:32:00,37.0,33.8,30.22,NNE,33,5.0,6.0,88,0.00,,,0.00,meteohub,2013-01-03 21:32:00,
2013-01-03 16:37:00,36.9,33.4,30.22,NE,39,2.0,7.0,87,0.00,,,0.00,meteohub,2013-01-03 21:37:00,
2013-01-03 16:42:00,36.9,33.6,30.22,East,96,4.0,7.0,88,0.00,,,0.00,meteohub,2013-01-03 21:42:00,
2013-01-03 16:47:00,36.7,33.3,30.22,NNE,20,6.0,7.0,87,0.00,,,0.00,meteohub,2013-01-03 21:47:00,
2013-01-03 16:52:00,36.5,33.1,30.22,NE,40,2.0,7.0,87,0.00,,,0.00,meteohub,2013-01-03 21:52:00,
2013-01-03 16:57:00,36.5,33.1,30.22,NE,36,1.0,7.0,87,0.00,,,0.00,meteohub,2013-01-03 21:57:00,
2013-01-03 17:02:00,36.3,32.9,30.22,NE,36,2.0,7.0,87,0.00,,,0.00,meteohub,2013-01-03 22:02:00,
2013-01-03 17:07:00,36.0,32.5,30.22,NE,51,1.0,4.0,87,0.00,,,0.00,meteohub,2013-01-03 22:07:00,
2013-01-03 17:12:00,35.8,32.4,30.22,NNE,29,1.0,4.0,87,0.00,,,0.00,meteohub,2013-01-03 22:12:00,
2013-01-03 17:17:00,35.4,32.0,30.22,NE,47,0.0,3.0,87,0.00,,,0.00,meteohub,2013-01-03 22:17:00,
2013-01-03 17:22:00,35.2,31.8,30.22,ENE,64,3.0,3.0,87,0.00,,,0.00,meteohub,2013-01-03 22:22:00,
2013-01-03 17:27:00,35.1,31.3,30.22,NNE,29,1.0,3.0,86,0.00,,,0.00,meteohub,2013-01-03 22:27:00,
2013-01-03 17:32:00,35.1,30.9,30.23,NE,40,5.0,7.0,85,0.00,,,0.00,meteohub,2013-01-03 22:32:00,
2013-01-03 17:37:00,34.9,31.1,30.23,NE,51,2.0,7.0,86,0.00,,,0.00,meteohub,2013-01-03 22:37:00,
2013-01-03 17:42:00,34.5,30.7,30.24,ENE,74,1.0,7.0,86,0.00,,,0.00,meteohub,2013-01-03 22:42:00,
2013-01-03 17:47:00,34.3,30.6,30.24,ENE,72,0.0,6.0,86,0.00,,,0.00,meteohub,2013-01-03 22:47:00,
2013-01-03 17:52:00,34.0,30.6,30.24,NE,36,0.0,6.0,87,0.00,,,0.00,meteohub,2013-01-03 22:52:00,
2013-01-03 17:57:00,33.6,30.2,30.25,NE,36,0.0,3.0,87,0.00,,,0.00,meteohub,2013-01-03 22:57:00,
2013-01-03 18:02:00,33.3,30.0,30.25,NE,36,0.0,1.0,88,0.00,,,0.00,meteohub,2013-01-03 23:02:00,
2013-01-03 18:07:00,33.1,30.2,30.26,NE,54,0.0,1.0,89,0.00,,,0.00,meteohub,2013-01-03 23:07:00,
2013-01-03 18:12:00,32.9,30.0,30.26,NW,312,0.0,1.0,89,0.00,,,0.00,meteohub,2013-01-03 23:12:00,
2013-01-03 18:17:00,32.7,30.2,30.26,WNW,295,0.0,1.0,90,0.00,,,0.00,meteohub,2013-01-03 23:17:00,
2013-01-03 18:22:00,32.5,30.0,30.26,WNW,294,0.0,1.0,90,0.00,,,0.00,meteohub,2013-01-03 23:22:00,
2013-01-03 18:27:00,32.7,29.8,30.26,NE,44,0.0,1.0,89,0.00,,,0.00,meteohub,2013-01-03 23:27:00,
2013-01-03 18:32:00,33.1,29.8,30.26,ESE,119,0.0,2.0,88,0.00,,,0.00,meteohub,2013-01-03 23:32:00,
2013-01-03 18:37:00,32.9,29.7,30.26,ENE,77,0.0,2.0,88,0.00,,,0.00,meteohub,2013-01-03 23:37:00,
2013-01-03 18:42:00,32.7,29.5,30.27,ENE,75,0.0,2.0,88,0.00,,,0.00,meteohub,2013-01-03 23:42:00,
2013-01-03 18:47:00,32.5,29.1,30.27,NNW,331,0.0,3.0,87,0.00,,,0.00,meteohub,2013-01-03 23:47:00,
2013-01-03 18:52:00,32.4,29.1,30.27,ENE,72,1.0,3.0,88,0.00,,,0.00,meteohub,2013-01-03 23:52:00,
2013-01-03 18:58:00,32.2,28.9,30.27,NNE,19,0.0,4.0,88,0.00,,,0.00,meteohub,2013-01-03 23:58:00,
2013-01-03 19:03:00,32.0,28.9,30.27,SSE,165,0.0,4.0,88,0.00,,,0.00,meteohub,2013-01-04 00:03:00,
2013-01-03 19:08:00,31.8,28.8,30.27,SSE,165,0.0,4.0,88,0.00,,,0.00,meteohub,2013-01-04 00:08:00,
2013-01-03 19:13:00,31.8,27.9,30.27,NE,44,0.0,1.0,85,0.00,,,0.00,meteohub,2013-01-04 00:13:00,
2013-01-03 19:18:00,32.0,27.5,30.28,NNE,31,4.0,4.0,83,0.00,,,0.00,meteohub,2013-01-04 00:18:00,
2013-01-03 19:23:00,32.4,27.1,30.27,NE,46,4.0,8.0,81,0.00,,,0.00,meteohub,2013-01-04 00:23:00,
2013-01-03 19:28:00,32.4,26.2,30.27,NE,46,4.0,10.0,78,0.00,,,0.00,meteohub,2013-01-04 00:28:00,
2013-01-03 19:33:00,32.5,25.2,30.27,NE,54,10.0,10.0,74,0.00,,,0.00,meteohub,2013-01-04 00:33:00,
2013-01-03 19:38:00,32.5,24.4,30.28,NE,36,5.0,11.0,72,0.00,,,0.00,meteohub,2013-01-04 00:38:00,
2013-01-03 19:43:00,32.7,24.1,30.28,NE,54,5.0,16.0,70,0.00,,,0.00,meteohub,2013-01-04 00:43:00,
2013-01-03 19:48:00,32.5,23.9,30.28,NNE,28,4.0,16.0,70,0.00,,,0.00,meteohub,2013-01-04 00:48:00,
2013-01-03 19:53:00,32.5,23.5,30.29,NNE,29,1.0,11.0,69,0.00,,,0.00,meteohub,2013-01-04 00:53:00,
2013-01-03 19:58:00,32.2,24.3,30.29,East,90,1.0,9.0,72,0.00,,,0.00,meteohub,2013-01-04 00:58:00,
2013-01-03 20:03:00,31.6,24.3,30.29,ENE,78,3.0,9.0,74,0.00,,,0.00,meteohub,2013-01-04 01:03:00,
2013-01-03 20:08:00,31.6,23.4,30.29,NE,54,7.0,9.0,71,0.00,,,0.00,meteohub,2013-01-04 01:08:00,
2013-01-03 20:13:00,31.6,22.3,30.29,NE,40,4.0,11.0,68,0.00,,,0.00,meteohub,2013-01-04 01:13:00,
2013-01-03 20:18:00,31.6,23.7,30.29,ENE,70,2.0,11.0,72,0.00,,,0.00,meteohub,2013-01-04 01:18:00,
2013-01-03 20:23:00,31.3,24.3,30.30,NE,49,0.0,11.0,75,0.00,,,0.00,meteohub,2013-01-04 01:23:00,
2013-01-03 20:28:00,30.7,24.4,30.29,NNE,25,0.0,7.0,77,0.00,,,0.00,meteohub,2013-01-04 01:28:00,
2013-01-03 20:33:00,30.4,24.6,30.30,East,85,0.0,4.0,79,0.00,,,0.00,meteohub,2013-01-04 01:33:00,
2013-01-03 20:38:00,30.0,25.0,30.30,ENE,73,1.0,3.0,81,0.00,,,0.00,meteohub,2013-01-04 01:38:00,
2013-01-03 20:43:00,29.8,24.8,30.30,ENE,68,0.0,3.0,81,0.00,,,0.00,meteohub,2013-01-04 01:43:00,
2013-01-03 20:48:00,29.7,24.8,30.30,ENE,69,0.0,3.0,82,0.00,,,0.00,meteohub,2013-01-04 01:48:00,
2013-01-03 20:53:00,29.1,24.6,30.29,ENE,70,0.0,3.0,83,0.00,,,0.00,meteohub,2013-01-04 01:53:00,
2013-01-03 20:58:00,28.8,25.2,30.30,ENE,69,0.0,2.0,86,0.00,,,0.00,meteohub,2013-01-04 01:58:00,
2013-01-03 21:03:00,28.2,24.6,30.30,ENE,70,0.0,0.0,86,0.00,,,0.00,meteohub,2013-01-04 02:03:00,
2013-01-03 21:08:00,28.0,24.6,30.30,NNW,340,0.0,0.0,87,0.00,,,0.00,meteohub,2013-01-04 02:08:00,
2013-01-03 21:13:00,27.7,24.6,30.30,NNW,340,0.0,0.0,88,0.00,,,0.00,meteohub,2013-01-04 02:13:00,
2013-01-03 21:18:00,27.7,24.1,30.30,South,191,0.0,0.0,86,0.00,,,0.00,meteohub,2013-01-04 02:18:00,
2013-01-03 21:23:00,27.7,24.8,30.30,South,190,0.0,1.0,89,0.00,,,0.00,meteohub,2013-01-04 02:23:00,
2013-01-03 21:28:00,27.3,24.4,30.30,South,190,0.0,1.0,89,0.00,,,0.00,meteohub,2013-01-04 02:28:00,
2013-01-03 21:33:00,27.1,24.1,30.31,South,191,0.0,1.0,88,0.00,,,0.00,meteohub,2013-01-04 02:33:00,
2013-01-03 21:38:00,27.0,24.1,30.31,South,190,0.0,0.0,89,0.00,,,0.00,meteohub,2013-01-04 02:38:00,
2013-01-03 21:43:00,26.8,24.3,30.31,South,191,0.0,0.0,90,0.00,,,0.00,meteohub,2013-01-04 02:43:00,
2013-01-03 21:48:00,26.6,24.3,30.31,South,190,0.0,0.0,91,0.00,,,0.00,meteohub,2013-01-04 02:48:00,
2013-01-03 21:54:00,26.4,24.1,30.31,South,191,0.0,0.0,91,0.00,,,0.00,meteohub,2013-01-04 02:54:00,
2013-01-03 21:59:00,26.4,24.1,30.31,South,190,0.0,0.0,91,0.00,,,0.00,meteohub,2013-01-04 02:59:00,
2013-01-03 22:04:00,26.2,23.9,30.31,South,191,0.0,1.0,91,0.00,,,0.00,meteohub,2013-01-04 03:04:00,
2013-01-03 22:09:00,26.2,23.9,30.31,South,191,0.0,1.0,91,0.00,,,0.00,meteohub,2013-01-04 03:09:00,
2013-01-03 22:14:00,26.1,24.1,30.31,South,190,0.0,1.0,92,0.00,,,0.00,meteohub,2013-01-04 03:14:00,
2013-01-03 22:19:00,25.9,23.9,30.31,South,191,0.0,0.0,92,0.00,,,0.00,meteohub,2013-01-04 03:19:00,
2013-01-03 22:24:00,25.9,23.9,30.31,South,191,0.0,0.0,92,0.00,,,0.00,meteohub,2013-01-04 03:24:00,
2013-01-03 22:29:00,25.5,23.5,30.30,South,191,0.0,0.0,92,0.00,,,0.00,meteohub,2013-01-04 03:29:00,
2013-01-03 22:34:00,25.5,23.5,30.31,South,191,0.0,0.0,92,0.00,,,0.00,meteohub,2013-01-04 03:34:00,
2013-01-03 22:39:00,25.3,23.4,30.31,South,191,0.0,0.0,92,0.00,,,0.00,meteohub,2013-01-04 03:39:00,
2013-01-03 22:44:00,25.3,23.4,30.31,SSW,194,0.0,0.0,92,0.00,,,0.00,meteohub,2013-01-04 03:44:00,
2013-01-03 22:49:00,25.3,23.5,30.31,SSE,149,0.0,0.0,93,0.00,,,0.00,meteohub,2013-01-04 03:49:00,
2013-01-03 22:54:00,25.3,23.5,30.31,SSE,150,0.0,0.0,93,0.00,,,0.00,meteohub,2013-01-04 03:54:00,
2013-01-03 22:59:00,25.3,23.4,30.31,SSE,150,0.0,0.0,92,0.00,,,0.00,meteohub,2013-01-04 03:59:00,
2013-01-03 23:04:00,25.5,23.2,30.32,SW,221,0.0,0.0,91,0.00,,,0.00,meteohub,2013-01-04 04:04:00,
2013-01-03 23:09:00,25.7,22.6,30.32,SW,221,0.0,0.0,88,0.00,,,0.00,meteohub,2013-01-04 04:09:00,
2013-01-03 23:14:00,25.7,22.6,30.32,SW,221,0.0,0.0,88,0.00,,,0.00,meteohub,2013-01-04 04:14:00,
2013-01-03 23:19:00,25.3,22.6,30.31,SW,221,0.0,0.0,89,0.00,,,0.00,meteohub,2013-01-04 04:19:00,
2013-01-03 23:24:00,25.2,22.5,30.31,SW,221,0.0,0.0,89,0.00,,,0.00,meteohub,2013-01-04 04:24:00,
2013-01-03 23:29:00,25.0,22.5,30.32,SW,221,0.0,0.0,90,0.00,,,0.00,meteohub,2013-01-04 04:29:00,
2013-01-03 23:34:00,24.8,22.3,30.32,SW,221,0.0,0.0,90,0.00,,,0.00,meteohub,2013-01-04 04:34:00,
2013-01-03 23:39:00,24.6,22.5,30.32,SW,221,0.0,0.0,91,0.00,,,0.00,meteohub,2013-01-04 04:39:00,
2013-01-03 23:44:00,24.6,22.6,30.33,SW,228,0.0,0.0,92,0.00,,,0.00,meteohub,2013-01-04 04:44:00,
2013-01-03 23:49:00,24.6,22.6,30.33,SW,228,0.0,0.0,92,0.00,,,0.00,meteohub,2013-01-04 04:49:00,
2013-01-03 23:54:00,24.6,22.5,30.33,SW,228,0.0,0.0,91,0.00,,,0.00,meteohub,2013-01-04 04:54:00,
2013-01-03 23:59:00,24.6,22.5,30.33,NNE,18,0.0,0.0,91,0.00,,,0.00,meteohub,2013-01-04 04:59:00,